This is the latest recevied weather packets stored in our database for station/object KC1IUC-15. If no packets are shown the sender has not sent any weather packets the latest 10 day(s).
| Time | Temp. | Humidity | Pressure | Rain* | Wind** | Luminosity | Snow |
|---|---|---|---|---|---|---|---|
| 1777484703 | 18.33° C | 46% | 1013.3 hPa | 0 mm | - | 454 W/m² | - |
| 1777484403 | 18.89° C | 45% | 1013 hPa | 0 mm | - | 416 W/m² | - |
| 1777484103 | 18.89° C | 48% | 1013 hPa | 0 mm | - | 565 W/m² | - |
| 1777483803 | 19.44° C | 45% | 1013.3 hPa | 0 mm | - | 579 W/m² | - |
| 1777483503 | 19.44° C | 46% | 1013.3 hPa | 0 mm | - | 598 W/m² | - |
| 1777483203 | 19.44° C | 45% | 1013.3 hPa | 0 mm | - | 619 W/m² | - |
| 1777482903 | 20° C | 46% | 1013.3 hPa | 0 mm | - | 683 W/m² | - |
| 1777482603 | 18.89° C | 50% | 1013.3 hPa | 0 mm | - | 643 W/m² | - |
| 1777482303 | 18.89° C | 47% | 1013.3 hPa | 0 mm | - | 565 W/m² | - |
| 1777482003 | 19.44° C | 45% | 1013.3 hPa | 0 mm | - | 600 W/m² | - |
| 1777481703 | 19.44° C | 45% | 1013 hPa | 0 mm | - | 591 W/m² | - |
| 1777481403 | 18.89° C | 45% | 1013.7 hPa | 0 mm | - | 595 W/m² | - |
| 1777481103 | 18.89° C | 44% | 1013.7 hPa | 0 mm | - | 461 W/m² | - |
| 1777480803 | 19.44° C | 44% | 1013.7 hPa | 0 mm | - | 703 W/m² | - |
| 1777480503 | 18.33° C | 47% | 1013.7 hPa | 0 mm | - | 604 W/m² | - |
| 1777480203 | 17.78° C | 46% | 1013.7 hPa | 0 mm | - | 518 W/m² | - |
| 1777479903 | 18.33° C | 45% | 1013.7 hPa | 0 mm | - | 324 W/m² | - |
| 1777479603 | 18.33° C | 46% | 1013.7 hPa | 0 mm | - | 377 W/m² | - |
| 1777479303 | 18.89° C | 45% | 1014 hPa | 0 mm | - | 665 W/m² | - |
| 1777479003 | 17.78° C | 47% | 1014 hPa | 0 mm | - | 729 W/m² | - |
| 1777478703 | 17.78° C | 47% | 1014 hPa | 0 mm | - | 720 W/m² | - |
| 1777478403 | 17.22° C | 50% | 1014 hPa | 0 mm | - | 467 W/m² | - |
| 1777478103 | 16.67° C | 50% | 1014 hPa | 0 mm | - | 645 W/m² | - |
| 1777477803 | 17.22° C | 48% | 1014 hPa | 0 mm | - | 720 W/m² | - |
| 1777477503 | 17.22° C | 50% | 1014 hPa | 0 mm | - | 347 W/m² | - |
* Rain latest hour (hover to see other rain measurements)
** Current wind speed in m/s (hover to see current wind gust speed)